createdAt,value
2017-08-02T00:00:03.246Z,1016.71
2017-08-02T00:05:02.504Z,1016.74
2017-08-02T00:10:02.991Z,1016.78
2017-08-02T00:15:03.289Z,1016.77
2017-08-02T00:20:02.745Z,1016.71
2017-08-02T00:25:03.193Z,1016.74
2017-08-02T00:30:02.611Z,1016.7
2017-08-02T00:35:03.085Z,1016.67
2017-08-02T00:40:03.392Z,1016.61
2017-08-02T00:45:02.682Z,1016.77
2017-08-02T00:50:03.095Z,1016.73
2017-08-02T00:55:03.370Z,1016.66
2017-08-02T01:00:02.600Z,1016.36
2017-08-02T01:05:02.847Z,1016.47
2017-08-02T01:10:03.347Z,1016.43
2017-08-02T01:15:02.614Z,1016.53
2017-08-02T01:20:02.929Z,1016.6
2017-08-02T01:25:03.390Z,1016.62
2017-08-02T01:30:02.756Z,1016.66
2017-08-02T01:35:03.158Z,1016.71
2017-08-02T01:40:03.505Z,1016.78
2017-08-02T01:45:02.748Z,1016.79
2017-08-02T01:50:03.125Z,1016.76
2017-08-02T01:55:03.508Z,1016.57
2017-08-02T02:00:02.898Z,1016.61
2017-08-02T02:05:03.241Z,1016.37
2017-08-02T02:10:02.701Z,1016.56
2017-08-02T02:15:02.952Z,1016.46
2017-08-02T02:20:03.192Z,1016.49
2017-08-02T02:25:02.758Z,1016.5
2017-08-02T02:30:03.110Z,1016.55
2017-08-02T02:35:03.392Z,1016.5
2017-08-02T02:40:02.668Z,1016.37
2017-08-02T02:45:02.992Z,1016.06
2017-08-02T02:50:03.333Z,1016.16
2017-08-02T02:55:02.633Z,1016.11
2017-08-02T03:00:02.914Z,1016.08
2017-08-02T03:05:03.182Z,1016.13
2017-08-02T03:10:02.644Z,1016.04
2017-08-02T03:15:03.072Z,1016.11
2017-08-02T03:20:03.408Z,1016.14
2017-08-02T03:25:02.688Z,1016.14
2017-08-02T03:30:02.988Z,1016.05
2017-08-02T03:35:03.478Z,1016.12
2017-08-02T03:40:02.901Z,1016.17
2017-08-02T03:45:03.341Z,1016.15
2017-08-02T03:50:02.637Z,1016.02
2017-08-02T03:55:03.051Z,1016.09
2017-08-02T04:00:03.565Z,1016.06
2017-08-02T04:05:02.978Z,1016.05
2017-08-02T04:10:03.480Z,1016.08
2017-08-02T04:15:02.810Z,1016.08
2017-08-02T04:20:03.105Z,1016.1
2017-08-02T04:25:02.586Z,1015.97
2017-08-02T04:30:03.198Z,1016.08
2017-08-02T04:35:03.429Z,1016.15
2017-08-02T04:40:02.812Z,1016.18
2017-08-02T04:45:03.247Z,1016.16
2017-08-02T04:50:02.730Z,1016.14
2017-08-02T04:55:03.103Z,1016.31
2017-08-02T05:00:03.449Z,1016.28
2017-08-02T05:05:02.867Z,1016.22
2017-08-02T05:10:03.204Z,1016.45
2017-08-02T05:15:02.633Z,1016.5
2017-08-02T05:20:03.080Z,1016.34
2017-08-02T05:25:03.505Z,1016.38
2017-08-02T05:30:02.794Z,1016.48
2017-08-02T05:35:03.112Z,1016.5
2017-08-02T05:40:02.600Z,1016.5
2017-08-02T05:45:03.068Z,1016.47
2017-08-02T05:50:03.389Z,1016.51
2017-08-02T05:55:02.607Z,1016.46
2017-08-02T06:00:03.138Z,1016.46
2017-08-02T06:05:02.583Z,1016.6
2017-08-02T06:10:03.087Z,1016.57
2017-08-02T06:15:03.419Z,1016.54
2017-08-02T06:20:02.819Z,1016.57
2017-08-02T06:25:03.275Z,1016.45
2017-08-02T06:30:02.659Z,1016.42
2017-08-02T06:35:02.977Z,1016.4
2017-08-02T06:40:03.585Z,1016.27
2017-08-02T06:45:02.814Z,1016.29
2017-08-02T06:50:03.208Z,1016.31
2017-08-02T06:55:02.642Z,1016.49
2017-08-02T07:00:02.929Z,1016.63
2017-08-02T07:05:03.389Z,1016.46
2017-08-02T07:10:02.730Z,1016.65
2017-08-02T07:15:03.027Z,1016.87
2017-08-02T07:20:03.315Z,1016.82
2017-08-02T07:25:02.601Z,1016.8
2017-08-02T07:30:03.025Z,1016.8
2017-08-02T07:35:03.322Z,1016.58
2017-08-02T07:40:02.631Z,1016.65
2017-08-02T07:45:03.101Z,1016.71
2017-08-02T07:50:03.405Z,1016.61
2017-08-02T07:55:02.801Z,1016.72
2017-08-02T08:00:03.097Z,1016.89
2017-08-02T08:05:02.570Z,1016.98
2017-08-02T08:10:02.917Z,1017.08
2017-08-02T08:15:03.194Z,1016.91
2017-08-02T08:20:03.507Z,1016.85
2017-08-02T08:25:02.954Z,1017
2017-08-02T08:30:03.216Z,1017.15
2017-08-02T08:35:03.505Z,1017.18
2017-08-02T08:40:02.847Z,1017.21
2017-08-02T08:45:03.261Z,1017.24
2017-08-02T08:50:02.751Z,1017.32
2017-08-02T08:55:03.074Z,1017.3
2017-08-02T09:00:03.415Z,1017.23
2017-08-02T09:20:02.750Z,1017.35
2017-08-02T09:25:03.217Z,1017.4
2017-08-02T09:30:02.682Z,1017.45
2017-08-02T09:35:03.067Z,1017.46
2017-08-02T10:55:02.839Z,1017.3
2017-08-02T11:00:03.207Z,1017.3
2017-08-02T11:05:02.525Z,1017.38
2017-08-02T11:10:02.884Z,1017.25
2017-08-02T11:15:03.281Z,1017.31
2017-08-02T11:20:02.777Z,1017.29
2017-08-02T11:25:03.042Z,1017.28
2017-08-02T11:30:03.351Z,1017.29
2017-08-02T11:35:02.787Z,1017.31
2017-08-02T11:40:03.196Z,1017.25
2017-08-02T11:45:02.628Z,1017.27
2017-08-02T11:50:02.925Z,1017.18
2017-08-02T11:55:03.161Z,1017.32
2017-08-02T12:00:03.454Z,1017.23
2017-08-02T12:05:02.759Z,1017.2
2017-08-02T12:10:03.280Z,1016.98
2017-08-02T12:15:02.667Z,1016.91
2017-08-02T12:20:02.925Z,1016.97
2017-08-02T12:25:03.432Z,1017
2017-08-02T12:30:02.750Z,1017.07
2017-08-02T12:35:03.073Z,1017.09
2017-08-02T12:40:03.443Z,1016.89
2017-08-02T12:45:02.861Z,1016.91
2017-08-02T12:50:03.139Z,1016.82
2017-08-02T12:55:02.653Z,1016.65
2017-08-02T13:00:03.184Z,1016.67
2017-08-02T13:05:02.665Z,1016.71
2017-08-02T13:10:03.024Z,1016.76
2017-08-02T13:15:03.415Z,1016.62
2017-08-02T13:20:02.707Z,1016.46
2017-08-02T13:25:03.256Z,1016.4
2017-08-02T13:30:02.589Z,1016.52
2017-08-02T13:35:02.889Z,1016.23
2017-08-02T13:40:03.261Z,1016.03
2017-08-02T13:45:02.698Z,1015.92
2017-08-02T13:50:03.220Z,1015.94
2017-08-02T13:55:02.666Z,1016.03
2017-08-02T14:00:02.990Z,1016.1
2017-08-02T14:05:03.313Z,1016.12
2017-08-02T14:10:02.774Z,1016.04
2017-08-02T14:15:03.179Z,1015.95
2017-08-02T14:20:02.577Z,1015.98
2017-08-02T14:25:03.052Z,1015.9
2017-08-02T14:30:03.446Z,1015.77
2017-08-02T14:35:02.922Z,1015.82
2017-08-02T14:40:03.300Z,1015.78
2017-08-02T14:45:02.766Z,1015.73
2017-08-02T14:50:03.074Z,1015.75
2017-08-02T14:55:03.399Z,1015.64
2017-08-02T15:00:02.791Z,1015.63
2017-08-02T15:05:03.100Z,1015.61
2017-08-02T15:10:03.416Z,1015.62
2017-08-02T15:15:02.704Z,1015.55
2017-08-02T15:20:03.164Z,1015.69
2017-08-02T15:25:02.545Z,1015.7
2017-08-02T15:30:03.046Z,1015.79
2017-08-02T15:35:03.421Z,1015.83
2017-08-02T15:40:02.769Z,1015.81
2017-08-02T15:45:03.219Z,1015.87
2017-08-02T15:50:02.563Z,1015.91
2017-08-02T15:55:02.959Z,1016.01
2017-08-02T16:00:03.318Z,1015.96
2017-08-02T16:05:02.626Z,1015.85
2017-08-02T16:10:03.054Z,1015.79
2017-08-02T16:15:03.319Z,1015.73
2017-08-02T16:20:02.756Z,1015.73
2017-08-02T16:25:03.234Z,1015.77
2017-08-02T16:30:03.519Z,1015.74
2017-08-02T16:35:02.939Z,1015.76
2017-08-02T16:40:03.359Z,1015.66
2017-08-02T16:45:02.660Z,1015.64
2017-08-02T16:50:02.991Z,1015.58
2017-08-02T16:55:03.424Z,1015.58
2017-08-02T17:00:02.884Z,1015.68
2017-08-02T17:05:03.549Z,1015.77
2017-08-02T17:10:02.852Z,1015.83
2017-08-02T17:15:03.161Z,1015.82
2017-08-02T17:20:02.573Z,1015.82
2017-08-02T17:25:03.076Z,1015.67
2017-08-02T17:30:03.482Z,1015.45
2017-08-02T17:35:02.813Z,1015.41
2017-08-02T17:40:03.215Z,1015.24
2017-08-02T17:45:02.720Z,1015.17
2017-08-02T17:50:03.194Z,1015.22
2017-08-02T17:55:03.530Z,1015.23
2017-08-02T18:00:02.803Z,1015.31
2017-08-02T18:05:03.283Z,1015.25
2017-08-02T18:10:02.645Z,1015.28
2017-08-02T18:15:03.078Z,1015.29
2017-08-02T18:20:03.353Z,1015.43
2017-08-02T18:25:02.780Z,1015.35
2017-08-02T18:30:03.203Z,1015.15
2017-08-02T18:35:03.463Z,1015.17
2017-08-02T18:40:02.863Z,1015.11
2017-08-02T18:45:03.236Z,1015.07
2017-08-02T18:50:02.646Z,1015.09
2017-08-02T18:55:03.103Z,1014.98
2017-08-02T19:00:03.460Z,1015.04
2017-08-02T19:05:02.798Z,1015.07
2017-08-02T19:10:03.331Z,1014.98
2017-08-02T19:15:02.614Z,1015.08
2017-08-02T19:20:03.076Z,1015.07
2017-08-02T19:25:02.558Z,1015.12
2017-08-02T19:30:02.885Z,1015.24
2017-08-02T19:35:03.419Z,1015.27
2017-08-02T19:40:02.908Z,1015.4
2017-08-02T19:45:03.350Z,1015.28
2017-08-02T19:50:02.798Z,1015.08
2017-08-02T19:55:03.301Z,1015.07
2017-08-02T20:00:02.756Z,1015.21
2017-08-02T20:05:03.232Z,1015.19
2017-08-02T20:10:02.805Z,1015.18
2017-08-02T20:15:03.100Z,1015.08
2017-08-02T20:20:03.402Z,1015.31
2017-08-02T20:25:02.670Z,1015.23
2017-08-02T20:30:03.060Z,1015.32
2017-08-02T20:35:03.480Z,1015.13
2017-08-02T20:40:02.967Z,1015.12
2017-08-02T20:45:03.315Z,1015.13
2017-08-02T20:50:02.621Z,1015.02
2017-08-02T20:55:03.089Z,1015.04
2017-08-02T21:00:03.367Z,1015.08
2017-08-02T21:05:02.636Z,1014.76
2017-08-02T21:10:03.153Z,1014.8
2017-08-02T21:15:03.476Z,1014.7
2017-08-02T21:20:02.803Z,1014.68
2017-08-02T21:25:03.268Z,1014.7
2017-08-02T21:30:02.543Z,1014.56
2017-08-02T21:35:02.968Z,1014.52
2017-08-02T21:40:03.305Z,1014.45
2017-08-02T21:45:02.572Z,1014.44
2017-08-02T21:50:03.040Z,1014.34
2017-08-02T21:55:03.518Z,1014.25
2017-08-02T22:00:02.978Z,1014.43
2017-08-02T22:05:03.268Z,1014.34
2017-08-02T22:10:02.798Z,1014.16
2017-08-02T22:15:03.080Z,1014.24
2017-08-02T22:20:03.419Z,1014.3
2017-08-02T22:25:02.709Z,1014.24
2017-08-02T22:30:03.110Z,1013.97
2017-08-02T22:35:03.606Z,1013.97
2017-08-02T22:40:02.933Z,1013.93
2017-08-02T22:45:03.269Z,1013.99
2017-08-02T22:50:02.588Z,1013.97
2017-08-02T22:55:02.981Z,1013.96
2017-08-02T23:00:03.530Z,1014.03
2017-08-02T23:05:02.772Z,1014.04
2017-08-02T23:10:03.169Z,1013.86
2017-08-02T23:15:03.469Z,1013.63
2017-08-02T23:20:02.788Z,1013.63
2017-08-02T23:25:03.117Z,1013.43
2017-08-02T23:30:03.359Z,1013.39
2017-08-02T23:35:02.650Z,1013.4
2017-08-02T23:40:02.962Z,1013.41
2017-08-02T23:45:03.279Z,1013.4
2017-08-02T23:50:02.636Z,1013.25
2017-08-02T23:55:02.955Z,1013.33
